createdAt,value
2018-11-07T00:02:14.651Z,89.63
2018-11-07T00:04:43.118Z,96.30
2018-11-07T00:07:11.598Z,86.50
2018-11-07T00:09:40.059Z,106.53
2018-11-07T00:12:08.566Z,104.90
2018-11-07T00:14:37.050Z,103.83
2018-11-07T00:17:05.778Z,112.03
2018-11-07T00:19:34.314Z,110.23
2018-11-07T00:22:02.718Z,95.70
2018-11-07T00:24:31.199Z,108.57
2018-11-07T00:26:59.661Z,103.27
2018-11-07T00:29:28.186Z,105.53
2018-11-07T00:31:56.643Z,104.60
2018-11-07T00:34:25.117Z,98.33
2018-11-07T00:36:53.592Z,103.20
2018-11-07T00:39:22.070Z,109.30
2018-11-07T00:41:50.544Z,100.60
2018-11-07T00:44:19.015Z,98.93
2018-11-07T00:46:47.478Z,98.50
2018-11-07T00:49:15.943Z,91.33
2018-11-07T00:51:44.423Z,96.10
2018-11-07T00:54:12.903Z,101.00
2018-11-07T00:56:41.366Z,88.77
2018-11-07T00:59:09.827Z,80.47
2018-11-07T01:01:38.287Z,91.10
2018-11-07T01:04:06.759Z,81.53
2018-11-07T01:06:35.243Z,116.03
2018-11-07T01:09:03.874Z,82.00
2018-11-07T01:11:32.411Z,99.83
2018-11-07T01:14:00.873Z,96.43
2018-11-07T01:16:29.344Z,83.97
2018-11-07T01:18:57.830Z,82.43
2018-11-07T01:21:26.303Z,73.60
2018-11-07T01:23:54.770Z,75.60
2018-11-07T01:26:23.234Z,75.37
2018-11-07T01:28:51.708Z,84.20
2018-11-07T01:31:20.215Z,89.07
2018-11-07T01:33:48.677Z,85.40
2018-11-07T01:36:17.202Z,85.83
2018-11-07T01:38:45.678Z,82.10
2018-11-07T01:41:14.146Z,85.10
2018-11-07T01:43:42.654Z,89.67
2018-11-07T01:46:11.131Z,82.13
2018-11-07T01:48:39.650Z,77.17
2018-11-07T01:51:08.244Z,85.43
2018-11-07T01:53:36.731Z,85.17
2018-11-07T01:56:05.597Z,98.87
2018-11-07T01:58:34.074Z,80.57
2018-11-07T02:01:02.567Z,89.93
2018-11-07T02:03:31.075Z,89.67
2018-11-07T02:05:59.936Z,78.70
2018-11-07T02:08:31.195Z,77.43
2018-11-07T02:11:00.468Z,66.40
2018-11-07T02:13:29.018Z,90.30
2018-11-07T02:15:57.765Z,83.53
2018-11-07T02:18:26.298Z,68.00
2018-11-07T02:20:54.779Z,79.07
2018-11-07T02:23:23.262Z,87.53
2018-11-07T02:25:51.749Z,93.47
2018-11-07T02:28:20.214Z,73.87
2018-11-07T02:30:48.686Z,72.23
2018-11-07T02:33:17.157Z,74.20
2018-11-07T02:35:45.684Z,68.73
2018-11-07T02:38:14.207Z,62.30
2018-11-07T02:40:42.718Z,61.83
2018-11-07T02:43:11.194Z,52.80
2018-11-07T02:45:39.676Z,59.20
2018-11-07T02:48:08.162Z,65.53
2018-11-07T02:50:48.908Z,51.23
2018-11-07T02:53:17.421Z,66.73
2018-11-07T02:55:45.934Z,61.27
2018-11-07T02:58:14.390Z,61.30
2018-11-07T03:00:42.875Z,58.57
2018-11-07T03:03:11.347Z,52.90
2018-11-07T03:05:39.822Z,52.43
2018-11-07T03:08:08.291Z,58.47
2018-11-07T03:10:36.876Z,50.90
2018-11-07T03:13:05.275Z,50.33
2018-11-07T03:15:33.734Z,50.73
2018-11-07T03:18:02.204Z,48.20
2018-11-07T03:20:30.662Z,55.70
2018-11-07T03:22:59.122Z,46.90
2018-11-07T03:25:27.595Z,50.70
2018-11-07T03:27:56.060Z,52.50
2018-11-07T03:30:24.523Z,60.80
2018-11-07T03:32:52.988Z,54.80
2018-11-07T03:35:26.844Z,55.70
2018-11-07T03:37:56.046Z,53.77
2018-11-07T03:40:24.944Z,53.63
2018-11-07T03:42:53.534Z,53.73
2018-11-07T03:45:27.283Z,43.60
2018-11-07T03:47:55.739Z,50.83
2018-11-07T03:50:24.211Z,52.47
2018-11-07T03:52:52.693Z,50.53
2018-11-07T03:55:21.197Z,50.77
2018-11-07T03:57:49.678Z,43.90
2018-11-07T04:00:18.147Z,45.10
2018-11-07T04:02:46.619Z,41.50
2018-11-07T04:05:15.086Z,45.37
2018-11-07T04:07:43.588Z,35.00
2018-11-07T04:10:12.066Z,33.80
2018-11-07T04:12:40.540Z,37.57
2018-11-07T04:15:09.653Z,40.40
2018-11-07T04:17:38.145Z,45.03
2018-11-07T04:20:07.510Z,39.67
2018-11-07T04:22:35.982Z,37.73
2018-11-07T04:25:04.762Z,35.53
2018-11-07T04:27:33.279Z,28.33
2018-11-07T04:30:01.743Z,29.33
2018-11-07T04:32:30.258Z,30.90
2018-11-07T04:34:58.713Z,29.57
2018-11-07T04:37:27.194Z,29.07
2018-11-07T04:39:55.663Z,27.33
2018-11-07T04:42:24.303Z,32.80
2018-11-07T04:44:52.822Z,28.70
2018-11-07T04:47:21.281Z,28.27
2018-11-07T04:49:49.747Z,31.53
2018-11-07T04:52:18.223Z,25.07
2018-11-07T04:54:46.682Z,23.07
2018-11-07T04:57:15.149Z,25.30
2018-11-07T04:59:43.630Z,23.13
2018-11-07T05:02:12.095Z,27.17
2018-11-07T05:04:40.592Z,23.17
2018-11-07T05:07:09.426Z,24.30
2018-11-07T05:09:37.897Z,26.60
2018-11-07T05:12:07.260Z,25.87
2018-11-07T05:14:35.723Z,28.43
2018-11-07T05:17:04.512Z,23.93
2018-11-07T05:19:33.040Z,19.80
2018-11-07T05:22:01.509Z,31.23
2018-11-07T05:24:29.978Z,27.20
2018-11-07T05:26:58.442Z,25.97
2018-11-07T05:29:26.898Z,19.83
2018-11-07T05:31:55.474Z,25.43
2018-11-07T05:34:23.874Z,21.50
2018-11-07T05:36:52.439Z,33.70
2018-11-07T05:39:20.902Z,26.73
2018-11-07T05:41:49.365Z,22.27
2018-11-07T05:44:17.833Z,23.93
2018-11-07T05:46:46.286Z,23.47
2018-11-07T05:49:14.763Z,20.60
2018-11-07T05:51:43.222Z,19.13
2018-11-07T05:54:11.683Z,19.77
2018-11-07T05:56:40.143Z,20.00
2018-11-07T05:59:08.630Z,19.80
2018-11-07T06:01:37.312Z,20.73
2018-11-07T06:04:06.493Z,21.50
2018-11-07T06:06:34.966Z,21.03
2018-11-07T06:09:03.611Z,25.50
2018-11-07T06:11:32.107Z,26.20
2018-11-07T06:14:00.869Z,21.87
2018-11-07T06:16:29.326Z,24.23
2018-11-07T06:18:57.786Z,21.40
2018-11-07T06:21:26.260Z,21.97
2018-11-07T06:23:54.750Z,20.30
2018-11-07T06:26:23.238Z,22.33
2018-11-07T06:28:51.709Z,19.13
2018-11-07T06:31:20.177Z,19.83
2018-11-07T06:33:48.786Z,19.77
2018-11-07T06:36:17.260Z,22.27
2018-11-07T06:38:45.724Z,24.60
2018-11-07T06:41:14.186Z,22.23
2018-11-07T06:43:42.656Z,27.27
2018-11-07T06:46:11.137Z,18.60
2018-11-07T06:48:39.595Z,20.20
2018-11-07T06:51:08.123Z,20.00
2018-11-07T06:53:36.591Z,22.43
2018-11-07T06:56:05.164Z,21.30
2018-11-07T06:58:33.623Z,18.13
2018-11-07T07:01:02.207Z,21.23
2018-11-07T07:03:30.702Z,21.50
2018-11-07T07:05:59.175Z,22.80
2018-11-07T07:08:27.638Z,20.53
2018-11-07T07:10:56.150Z,24.33
2018-11-07T07:13:24.630Z,16.07
2018-11-07T07:15:53.087Z,16.23
2018-11-07T07:18:21.551Z,16.60
2018-11-07T07:20:50.017Z,14.30
2018-11-07T07:23:18.478Z,15.70
2018-11-07T07:25:46.990Z,17.57
2018-11-07T07:28:15.414Z,19.40
2018-11-07T07:30:43.879Z,15.00
2018-11-07T07:33:12.406Z,13.03
2018-11-07T07:35:40.842Z,15.13
2018-11-07T07:38:09.300Z,15.90
2018-11-07T07:40:37.765Z,17.70
2018-11-07T07:43:06.435Z,16.13
2018-11-07T07:45:34.974Z,15.93
2018-11-07T07:48:03.385Z,14.87
2018-11-07T07:50:31.895Z,15.37
2018-11-07T07:53:00.366Z,13.87
2018-11-07T07:55:28.843Z,19.30
2018-11-07T07:57:57.329Z,15.43
2018-11-07T08:00:25.791Z,14.07
2018-11-07T08:02:54.278Z,15.23
2018-11-07T08:05:22.746Z,15.63
2018-11-07T08:07:51.206Z,13.90
2018-11-07T08:10:20.946Z,14.20
2018-11-07T08:12:50.023Z,14.97
2018-11-07T08:15:18.939Z,14.50
2018-11-07T08:17:47.551Z,15.20
2018-11-07T08:20:16.952Z,16.10
2018-11-07T08:22:46.218Z,10.73
2018-11-07T08:25:14.691Z,18.77
2018-11-07T08:27:43.191Z,15.50
2018-11-07T08:30:15.033Z,12.33
2018-11-07T08:32:43.495Z,11.83
2018-11-07T08:35:13.010Z,18.33
2018-11-07T08:37:42.428Z,17.73
2018-11-07T08:40:13.570Z,18.07
2018-11-07T08:42:42.135Z,16.30
2018-11-07T08:45:11.766Z,16.57
2018-11-07T08:47:40.559Z,21.70
2018-11-07T08:50:12.951Z,21.43
2018-11-07T08:52:41.648Z,18.93
2018-11-07T08:55:12.042Z,15.53
2018-11-07T08:57:40.511Z,25.57
2018-11-07T09:00:13.105Z,21.67
2018-11-07T09:02:42.271Z,21.17
2018-11-07T09:05:11.507Z,25.53
2018-11-07T09:07:40.176Z,20.60
2018-11-07T09:10:10.491Z,24.30
2018-11-07T09:12:39.005Z,33.00
2018-11-07T09:15:09.779Z,21.40
2018-11-07T09:17:38.362Z,18.93
2018-11-07T09:20:08.599Z,21.30
2018-11-07T09:22:37.031Z,25.17
2018-11-07T09:25:06.699Z,27.83
2018-11-07T09:27:35.204Z,30.10
2018-11-07T09:30:04.009Z,19.60
2018-11-07T09:32:32.655Z,21.20
2018-11-07T09:35:01.156Z,23.27
2018-11-07T09:37:29.614Z,24.50
2018-11-07T09:39:58.079Z,22.90
2018-11-07T09:42:26.555Z,23.10
2018-11-07T09:44:55.028Z,18.80
2018-11-07T09:47:23.538Z,20.80
2018-11-07T09:49:51.963Z,22.10
2018-11-07T09:52:20.435Z,20.40
2018-11-07T09:54:48.913Z,19.37
2018-11-07T09:57:17.380Z,28.93
2018-11-07T09:59:45.846Z,19.37
2018-11-07T10:02:14.315Z,18.37
2018-11-07T10:04:42.775Z,17.53
2018-11-07T10:07:11.261Z,14.60
2018-11-07T10:09:39.742Z,19.07
2018-11-07T10:12:08.194Z,15.10
2018-11-07T10:14:36.675Z,16.53
2018-11-07T10:17:05.183Z,18.60
2018-11-07T10:19:33.668Z,17.00
2018-11-07T10:22:02.179Z,15.07
2018-11-07T10:24:30.646Z,16.80
2018-11-07T10:26:59.235Z,17.33
2018-11-07T10:29:27.823Z,19.63
2018-11-07T10:31:56.128Z,15.70
2018-11-07T10:34:24.616Z,16.83
2018-11-07T10:36:53.076Z,16.90
2018-11-07T10:39:21.583Z,16.37
2018-11-07T10:41:50.078Z,19.00
2018-11-07T10:44:18.589Z,17.37
2018-11-07T10:46:47.079Z,20.63
2018-11-07T10:49:15.543Z,19.10
2018-11-07T10:51:44.038Z,17.73
2018-11-07T10:54:12.527Z,15.63
2018-11-07T10:56:40.991Z,19.70
2018-11-07T10:59:09.471Z,19.43
2018-11-07T11:01:43.198Z,15.27
2018-11-07T11:04:11.667Z,17.70
2018-11-07T11:06:40.479Z,15.77
2018-11-07T11:09:09.079Z,14.63
2018-11-07T11:11:37.950Z,15.57
2018-11-07T11:14:06.447Z,13.60
2018-11-07T11:16:34.927Z,15.27
2018-11-07T11:19:03.382Z,14.00
2018-11-07T11:21:31.915Z,15.50
2018-11-07T11:24:00.751Z,14.93
2018-11-07T11:26:29.175Z,12.10
2018-11-07T11:28:57.635Z,13.23
2018-11-07T11:31:26.149Z,15.53
2018-11-07T11:33:54.784Z,15.57
2018-11-07T11:36:23.076Z,15.30
2018-11-07T11:38:51.566Z,14.47
2018-11-07T11:41:20.337Z,18.27
2018-11-07T11:43:48.799Z,15.80
2018-11-07T11:46:17.307Z,13.07
2018-11-07T11:48:45.790Z,13.17
2018-11-07T11:51:14.279Z,13.80
2018-11-07T11:53:42.762Z,14.17
2018-11-07T11:56:11.236Z,21.70
2018-11-07T11:58:39.722Z,14.90
2018-11-07T12:01:08.579Z,17.07
2018-11-07T12:03:37.054Z,19.17
2018-11-07T12:06:05.898Z,19.00
2018-11-07T12:08:34.480Z,14.43
2018-11-07T12:11:02.858Z,11.80
2018-11-07T12:13:31.504Z,15.37
2018-11-07T12:15:59.919Z,17.13
2018-11-07T12:18:28.375Z,18.37
2018-11-07T12:20:56.853Z,16.33
2018-11-07T12:23:25.319Z,17.30
2018-11-07T12:25:53.806Z,20.23
2018-11-07T12:28:22.287Z,13.30
2018-11-07T12:30:50.747Z,14.60
2018-11-07T12:33:19.214Z,11.90
2018-11-07T12:35:47.699Z,11.60
2018-11-07T12:38:16.159Z,18.77
2018-11-07T12:40:44.634Z,16.53
2018-11-07T12:43:13.109Z,14.27
2018-11-07T12:45:41.585Z,14.17
2018-11-07T12:48:10.091Z,15.57
2018-11-07T12:50:38.559Z,14.77
2018-11-07T12:53:07.019Z,14.60
2018-11-07T12:55:35.486Z,14.00
2018-11-07T12:58:04.047Z,16.50
2018-11-07T13:00:32.618Z,20.23
2018-11-07T13:03:01.190Z,13.53
2018-11-07T13:05:29.552Z,14.17
2018-11-07T13:07:58.620Z,13.30
2018-11-07T13:10:27.086Z,17.43
2018-11-07T13:12:55.554Z,13.70
2018-11-07T13:15:24.081Z,17.00
2018-11-07T13:17:52.887Z,17.90
2018-11-07T13:20:23.764Z,14.20
2018-11-07T13:22:53.287Z,17.63
2018-11-07T13:25:22.191Z,17.27
2018-11-07T13:27:50.675Z,15.20
2018-11-07T13:30:21.394Z,21.13
2018-11-07T13:32:49.867Z,16.57
2018-11-07T13:35:19.071Z,16.30
2018-11-07T13:37:48.329Z,22.40
2018-11-07T13:40:18.125Z,24.73
2018-11-07T13:42:46.575Z,18.10
2018-11-07T13:45:16.372Z,23.93
2018-11-07T13:47:45.990Z,21.13
2018-11-07T13:50:14.958Z,18.97
2018-11-07T13:52:43.434Z,21.53
2018-11-07T13:55:13.015Z,18.90
2018-11-07T13:57:41.847Z,23.60
2018-11-07T14:00:14.351Z,20.80
2018-11-07T14:02:42.838Z,25.70
2018-11-07T14:05:12.446Z,21.30
2018-11-07T14:07:40.962Z,21.53
2018-11-07T14:10:11.786Z,21.37
2018-11-07T14:12:40.606Z,16.00
2018-11-07T14:15:11.151Z,21.43
2018-11-07T14:17:39.615Z,17.13
2018-11-07T14:20:08.127Z,17.73
2018-11-07T14:22:36.639Z,16.40
2018-11-07T14:25:06.386Z,23.00
2018-11-07T14:27:34.899Z,26.13
2018-11-07T14:30:03.967Z,22.33
2018-11-07T14:32:32.799Z,18.43
2018-11-07T14:35:01.295Z,17.60
2018-11-07T14:37:29.756Z,13.90
2018-11-07T14:39:58.237Z,18.50
2018-11-07T14:42:26.782Z,22.53
2018-11-07T14:44:55.246Z,19.87
2018-11-07T14:47:23.732Z,25.47
2018-11-07T14:49:52.194Z,16.17
2018-11-07T14:52:20.647Z,21.40
2018-11-07T14:54:49.136Z,19.00
2018-11-07T14:57:17.647Z,19.27
2018-11-07T14:59:46.118Z,17.93
2018-11-07T15:02:14.599Z,19.13
2018-11-07T15:04:43.067Z,16.33
2018-11-07T15:07:11.564Z,16.80
2018-11-07T15:09:40.015Z,22.63
2018-11-07T15:12:08.494Z,20.23
2018-11-07T15:14:36.971Z,18.37
2018-11-07T15:17:05.541Z,19.87
2018-11-07T15:19:34.078Z,22.97
2018-11-07T15:22:02.535Z,19.90
2018-11-07T15:24:31.015Z,22.13
2018-11-07T15:26:59.478Z,17.77
2018-11-07T15:29:27.947Z,17.07
2018-11-07T15:31:56.423Z,19.57
2018-11-07T15:34:24.930Z,19.83
2018-11-07T15:36:53.404Z,21.13
2018-11-07T15:39:21.875Z,22.20
2018-11-07T15:41:50.343Z,26.03
2018-11-07T15:44:18.818Z,28.87
2018-11-07T15:46:47.298Z,19.37
2018-11-07T15:49:15.766Z,21.43
2018-11-07T15:51:44.290Z,25.03
2018-11-07T15:54:12.747Z,24.77
2018-11-07T15:56:41.203Z,30.30
2018-11-07T15:59:09.666Z,24.53
2018-11-07T16:01:38.135Z,25.27
2018-11-07T16:04:06.603Z,26.43
2018-11-07T16:06:35.073Z,25.33
2018-11-07T16:09:04.362Z,24.37
2018-11-07T16:11:32.896Z,23.37
2018-11-07T16:14:01.353Z,24.80
2018-11-07T16:16:29.824Z,38.20
2018-11-07T16:18:58.274Z,31.70
2018-11-07T16:21:26.759Z,30.20
2018-11-07T16:23:55.847Z,35.20
2018-11-07T16:26:24.578Z,30.30
2018-11-07T16:28:53.158Z,36.83
2018-11-07T16:31:21.578Z,32.40
2018-11-07T16:33:50.052Z,25.17
2018-11-07T16:36:18.522Z,28.50
2018-11-07T16:38:47.038Z,30.30
2018-11-07T16:41:15.534Z,30.70
2018-11-07T16:43:43.936Z,29.40
2018-11-07T16:46:12.408Z,35.43
2018-11-07T16:48:40.954Z,36.83
2018-11-07T16:51:09.371Z,24.87
2018-11-07T16:53:38.132Z,26.07
2018-11-07T16:56:06.847Z,29.77
2018-11-07T16:58:35.318Z,27.20
2018-11-07T17:01:03.807Z,26.83
2018-11-07T17:03:32.339Z,32.30
2018-11-07T17:06:00.804Z,27.80
2018-11-07T17:08:29.268Z,33.97
2018-11-07T17:10:57.738Z,29.20
2018-11-07T17:13:26.235Z,30.57
2018-11-07T17:15:54.770Z,35.17
2018-11-07T17:18:23.232Z,42.57
2018-11-07T17:20:51.769Z,44.90
2018-11-07T17:23:20.203Z,36.13
2018-11-07T17:25:48.947Z,46.57
2018-11-07T17:28:17.409Z,32.57
2018-11-07T17:30:45.870Z,32.80
2018-11-07T17:33:14.342Z,42.07
2018-11-07T17:35:42.811Z,31.17
2018-11-07T17:38:11.299Z,37.23
2018-11-07T17:40:39.762Z,38.43
2018-11-07T17:43:08.241Z,37.67
2018-11-07T17:45:36.718Z,30.17
2018-11-07T17:48:05.426Z,35.20
2018-11-07T17:50:33.866Z,34.43
2018-11-07T17:53:02.350Z,28.63
2018-11-07T17:55:30.940Z,28.20
2018-11-07T17:57:59.436Z,31.53
2018-11-07T18:00:33.978Z,26.30
2018-11-07T18:03:02.478Z,32.63
2018-11-07T18:05:31.030Z,24.80
2018-11-07T18:07:59.511Z,27.33
2018-11-07T18:10:27.974Z,26.63
2018-11-07T18:12:56.451Z,24.50
2018-11-07T18:15:24.930Z,25.67
2018-11-07T18:17:53.400Z,27.60
2018-11-07T18:20:22.050Z,25.03
2018-11-07T18:22:50.606Z,27.47
2018-11-07T18:25:19.141Z,21.57
2018-11-07T18:27:47.643Z,29.97
2018-11-07T18:30:17.018Z,23.67
2018-11-07T18:32:46.186Z,26.10
2018-11-07T18:35:16.296Z,32.20
2018-11-07T18:37:45.158Z,32.03
2018-11-07T18:40:14.995Z,24.73
2018-11-07T18:42:43.491Z,22.80
2018-11-07T18:45:12.690Z,25.03
2018-11-07T18:47:42.798Z,22.30
2018-11-07T18:50:12.874Z,22.13
2018-11-07T18:52:46.949Z,22.13
2018-11-07T18:55:16.550Z,25.27
2018-11-07T18:57:45.574Z,25.10
2018-11-07T19:00:16.065Z,32.33
2018-11-07T19:02:45.197Z,28.90
2018-11-07T19:05:13.711Z,28.70
2018-11-07T19:07:42.448Z,21.33
2018-11-07T19:10:16.266Z,22.50
2018-11-07T19:12:45.321Z,21.00
2018-11-07T19:15:14.831Z,23.90
2018-11-07T19:17:44.466Z,25.23
2018-11-07T19:20:14.004Z,19.30
2018-11-07T19:22:42.650Z,19.60
2018-11-07T19:25:15.986Z,11.73
2018-11-07T19:27:44.474Z,19.20
2018-11-07T19:30:14.652Z,15.97
2018-11-07T19:32:44.275Z,16.67
2018-11-07T19:35:13.975Z,14.50
2018-11-07T19:37:42.759Z,22.57
2018-11-07T19:40:12.760Z,23.43
2018-11-07T19:42:41.414Z,19.20
2018-11-07T19:45:13.538Z,18.00
2018-11-07T19:47:42.166Z,16.73
2018-11-07T19:50:13.038Z,22.33
2018-11-07T19:52:41.550Z,18.30
2018-11-07T19:55:12.504Z,16.13
2018-11-07T19:57:41.121Z,22.30
2018-11-07T20:00:13.412Z,16.13
2018-11-07T20:02:42.734Z,22.67
2018-11-07T20:05:11.251Z,17.37
2018-11-07T20:07:40.019Z,22.10
2018-11-07T20:10:10.857Z,24.77
2018-11-07T20:12:39.594Z,24.00
2018-11-07T20:15:09.399Z,22.20
2018-11-07T20:17:37.859Z,19.67
2018-11-07T20:20:07.042Z,22.93
2018-11-07T20:22:35.569Z,19.93
2018-11-07T20:25:05.774Z,23.10
2018-11-07T20:27:34.248Z,14.23
2018-11-07T20:30:02.723Z,18.83
2018-11-07T20:32:31.248Z,12.73
2018-11-07T20:35:00.554Z,13.17
2018-11-07T20:37:29.225Z,13.77
2018-11-07T20:39:57.832Z,16.30
2018-11-07T20:42:26.522Z,17.63
2018-11-07T20:44:55.090Z,15.63
2018-11-07T20:47:23.640Z,11.50
2018-11-07T20:49:52.135Z,15.03
2018-11-07T20:52:20.615Z,14.47
2018-11-07T20:54:49.077Z,24.97
2018-11-07T20:57:17.546Z,16.13
2018-11-07T20:59:46.023Z,17.50
2018-11-07T21:02:14.479Z,20.40
2018-11-07T21:04:42.938Z,18.10
2018-11-07T21:07:11.410Z,16.63
2018-11-07T21:09:39.874Z,16.23
2018-11-07T21:12:08.346Z,20.17
2018-11-07T21:14:36.819Z,18.57
2018-11-07T21:17:05.368Z,24.33
2018-11-07T21:19:33.834Z,19.70
2018-11-07T21:22:02.331Z,12.93
2018-11-07T21:24:30.815Z,15.60
2018-11-07T21:26:59.326Z,15.47
2018-11-07T21:29:27.849Z,11.00
2018-11-07T21:31:56.307Z,11.47
2018-11-07T21:34:24.771Z,13.13
2018-11-07T21:36:53.239Z,21.00
2018-11-07T21:39:21.702Z,12.90
2018-11-07T21:41:50.164Z,10.13
2018-11-07T21:44:18.623Z,21.80
2018-11-07T21:46:47.091Z,10.30
2018-11-07T21:49:15.566Z,13.80
2018-11-07T21:51:44.047Z,33.50
2018-11-07T21:54:12.522Z,20.73
2018-11-07T21:56:40.978Z,21.40
2018-11-07T21:59:09.444Z,14.40
2018-11-07T22:01:37.906Z,16.33
2018-11-07T22:04:06.662Z,13.23
2018-11-07T22:06:35.170Z,13.50
2018-11-07T22:09:04.335Z,13.77
2018-11-07T22:11:32.806Z,13.53
2018-11-07T22:14:01.285Z,15.93
2018-11-07T22:16:29.757Z,12.97
2018-11-07T22:18:58.227Z,11.30
2018-11-07T22:21:26.695Z,11.50
2018-11-07T22:23:55.200Z,12.70
2018-11-07T22:26:24.475Z,13.87
2018-11-07T22:28:52.943Z,14.20
2018-11-07T22:31:21.444Z,13.80
2018-11-07T22:33:49.895Z,24.60
2018-11-07T22:36:21.342Z,16.00
2018-11-07T22:38:49.913Z,19.87
2018-11-07T22:41:18.479Z,18.23
2018-11-07T22:43:47.031Z,16.93
2018-11-07T22:46:15.766Z,23.83
2018-11-07T22:48:44.362Z,16.70
2018-11-07T22:51:12.823Z,18.80
2018-11-07T22:53:41.300Z,13.10
2018-11-07T22:56:09.783Z,12.70
2018-11-07T22:58:38.251Z,10.53
2018-11-07T23:01:12.210Z,12.37
2018-11-07T23:03:41.328Z,9.40
2018-11-07T23:06:09.747Z,12.30
2018-11-07T23:08:38.220Z,9.80
2018-11-07T23:11:07.004Z,13.90
2018-11-07T23:13:35.496Z,16.20
2018-11-07T23:16:04.005Z,14.20
2018-11-07T23:18:32.503Z,10.67
2018-11-07T23:21:00.969Z,15.60
2018-11-07T23:23:29.440Z,16.57
2018-11-07T23:25:58.007Z,13.90
2018-11-07T23:28:26.482Z,15.30
2018-11-07T23:30:54.944Z,13.80
2018-11-07T23:33:23.394Z,16.70
2018-11-07T23:35:51.854Z,14.80
2018-11-07T23:38:20.479Z,10.70
2018-11-07T23:40:48.930Z,11.10
2018-11-07T23:43:17.383Z,16.23
2018-11-07T23:45:45.864Z,18.97
2018-11-07T23:48:14.322Z,11.00
2018-11-07T23:50:42.801Z,15.10
2018-11-07T23:53:13.764Z,15.23
2018-11-07T23:55:43.438Z,14.30
2018-11-07T23:58:12.330Z,16.97
